Terminal Aerodrome Forecast
Issued by NWS Cleveland, OH

Home | Current Version | Previous Version | Graphics & Text | Print | Product List | Glossary On
Versions: 1 2 3 4 5 6 7 8 9 10 11 12 13 14 15 16 17 18 19 20
000
FTUS41 KCLE 201136
TAFERI
TAF
KERI 201136Z 2012/2112 20015G25KT P6SM BKN250
     FM202000 23009KT P6SM BKN250
     FM210200 21006KT P6SM OVC025
     FM210600 21006KT P6SM OVC015
     FM211000 21006KT 6SM -DZ BR OVC008=

USA.gov is the U.S. government's official web portal to all federal, state and local government web resources and services.